createdAt,value
2019-01-04T00:00:37.481Z,98909.44
2019-01-04T00:03:07.003Z,98909.70
2019-01-04T00:05:36.455Z,98913.94
2019-01-04T00:08:05.968Z,98908.34
2019-01-04T00:10:35.475Z,98909.09
2019-01-04T00:13:05.036Z,98907.66
2019-01-04T00:15:34.588Z,98890.95
2019-01-04T00:18:04.054Z,98893.80
2019-01-04T00:20:33.676Z,98886.79
2019-01-04T00:23:03.296Z,98897.49
2019-01-04T00:25:32.837Z,98896.55
2019-01-04T00:28:02.378Z,98890.79
2019-01-04T00:30:32.000Z,98887.74
2019-01-04T00:33:01.585Z,98893.70
2019-01-04T00:35:31.244Z,98899.42
2019-01-04T00:38:00.759Z,98896.67
2019-01-04T00:40:30.260Z,98901.16
2019-01-04T00:42:59.781Z,98896.03
2019-01-04T00:45:29.392Z,98891.69
2019-01-04T00:47:58.961Z,98901.08
2019-01-04T00:50:28.436Z,98906.38
2019-01-04T00:52:57.985Z,98913.52
2019-01-04T00:55:51.627Z,98921.47
2019-01-04T00:58:59.136Z,98912.75
2019-01-04T01:02:08.725Z,98907.10
2019-01-04T01:05:25.687Z,98902.76
2019-01-04T01:08:11.499Z,98901.16
2019-01-04T01:11:09.526Z,98904.89
2019-01-04T01:13:54.223Z,98906.84
2019-01-04T01:16:58.956Z,98907.84
2019-01-04T01:20:13.610Z,98912.06
2019-01-04T01:23:16.778Z,98911.65
2019-01-04T01:26:16.817Z,98912.74
2019-01-04T01:29:21.761Z,98915.84
2019-01-04T01:31:58.968Z,98913.63
2019-01-04T01:34:48.112Z,98924.13
2019-01-04T01:37:50.910Z,98919.76
2019-01-04T01:40:51.961Z,98914.19
2019-01-04T01:43:52.974Z,98907.31
2019-01-04T01:46:46.249Z,98904.08
2019-01-04T01:50:07.215Z,98905.13
2019-01-04T01:52:46.306Z,98906.41
2019-01-04T01:55:15.707Z,98905.66
2019-01-04T01:57:45.104Z,98904.81
2019-01-04T02:00:14.726Z,98905.38
2019-01-04T02:02:44.215Z,98909.63
2019-01-04T02:05:13.719Z,98913.56
2019-01-04T02:07:43.235Z,98914.66
2019-01-04T02:10:12.646Z,98911.14
2019-01-04T02:12:42.129Z,98905.98
2019-01-04T02:15:11.653Z,98906.79
2019-01-04T02:17:41.154Z,98910.77
2019-01-04T02:20:10.559Z,98907.92
2019-01-04T02:22:39.979Z,98908.63
2019-01-04T02:25:09.513Z,98906.61
2019-01-04T02:27:38.959Z,98901.36
2019-01-04T02:30:09.193Z,98900.98
2019-01-04T02:32:38.687Z,98908.46
2019-01-04T02:35:08.254Z,98906.53
2019-01-04T02:37:37.671Z,98907.44
2019-01-04T02:40:07.060Z,98907.00
2019-01-04T02:42:36.466Z,98901.23
2019-01-04T02:45:06.480Z,98909.25
2019-01-04T02:47:35.952Z,98906.94
2019-01-04T02:50:05.838Z,98913.94
2019-01-04T02:52:35.248Z,98907.75
2019-01-04T02:55:04.752Z,98903.08
2019-01-04T02:57:34.252Z,98907.93
2019-01-04T03:00:03.967Z,98902.32
2019-01-04T03:02:33.426Z,98915.67
2019-01-04T03:05:02.986Z,98911.02
2019-01-04T03:07:32.571Z,98901.30
2019-01-04T03:10:02.189Z,98900.20
2019-01-04T03:12:32.016Z,98901.68
2019-01-04T03:15:01.522Z,98906.48
2019-01-04T03:17:31.037Z,98899.23
2019-01-04T03:20:00.606Z,98897.48
2019-01-04T03:22:30.071Z,98897.94
2019-01-04T03:24:59.451Z,98899.07
2019-01-04T03:27:28.884Z,98909.35
2019-01-04T03:29:58.349Z,98905.13
2019-01-04T03:32:28.198Z,98902.98
2019-01-04T03:34:57.657Z,98908.04
2019-01-04T03:37:27.145Z,98908.86
2019-01-04T03:39:56.675Z,98904.47
2019-01-04T03:42:26.360Z,98898.80
2019-01-04T03:44:55.890Z,98892.20
2019-01-04T03:47:25.313Z,98884.38
2019-01-04T03:49:54.751Z,98885.14
2019-01-04T03:52:24.283Z,98894.02
2019-01-04T03:54:54.071Z,98888.51
2019-01-04T03:57:23.581Z,98883.56
2019-01-04T03:59:53.102Z,98882.10
2019-01-04T04:02:22.561Z,98886.81
2019-01-04T04:04:52.088Z,98884.77
2019-01-04T04:07:21.618Z,98887.36
2019-01-04T04:09:51.051Z,98887.64
2019-01-04T04:12:20.579Z,98890.27
2019-01-04T04:14:50.028Z,98879.64
2019-01-04T04:17:19.465Z,98881.61
2019-01-04T04:19:48.961Z,98875.53
2019-01-04T04:22:18.392Z,98883.80
2019-01-04T04:24:47.881Z,98878.92
2019-01-04T04:27:17.374Z,98882.75
2019-01-04T04:29:46.908Z,98885.16
2019-01-04T04:32:16.472Z,98895.47
2019-01-04T04:34:47.162Z,98898.03
2019-01-04T04:37:16.552Z,98897.90
2019-01-04T04:39:46.137Z,98907.70
2019-01-04T04:42:15.628Z,98905.14
2019-01-04T04:44:45.145Z,98911.52
2019-01-04T04:47:14.574Z,98901.87
2019-01-04T04:49:44.080Z,98909.19
2019-01-04T04:52:13.552Z,98909.73
2019-01-04T04:54:43.093Z,98909.95
2019-01-04T04:57:12.522Z,98911.13
2019-01-04T04:59:41.892Z,98907.05
2019-01-04T05:02:11.323Z,98899.14
2019-01-04T05:04:40.780Z,98901.69
2019-01-04T05:07:10.201Z,98910.27
2019-01-04T05:09:39.602Z,98904.99
2019-01-04T05:12:09.086Z,98904.44
2019-01-04T05:14:38.510Z,98902.20
2019-01-04T05:17:07.926Z,98899.27
2019-01-04T05:19:37.405Z,98892.98
2019-01-04T05:22:06.808Z,98899.20
2019-01-04T05:24:36.311Z,98896.36
2019-01-04T05:27:05.701Z,98903.33
2019-01-04T05:29:35.130Z,98898.61
2019-01-04T05:32:04.613Z,98897.41
2019-01-04T05:34:34.012Z,98893.64
2019-01-04T05:37:03.485Z,98895.65
2019-01-04T05:39:32.888Z,98895.37
2019-01-04T05:42:02.418Z,98893.19
2019-01-04T05:44:31.910Z,98896.96
2019-01-04T05:47:01.320Z,98896.55
2019-01-04T05:49:30.739Z,98889.70
2019-01-04T05:52:00.168Z,98890.55
2019-01-04T05:54:29.544Z,98894.91
2019-01-04T05:56:58.967Z,98889.00
2019-01-04T05:59:28.418Z,98887.31
2019-01-04T06:01:57.922Z,98879.13
2019-01-04T06:04:27.380Z,98886.05
2019-01-04T06:06:56.801Z,98882.31
2019-01-04T06:09:26.292Z,98882.30
2019-01-04T06:11:55.738Z,98887.08
2019-01-04T06:14:25.195Z,98888.45
2019-01-04T06:16:54.609Z,98884.14
2019-01-04T06:19:24.090Z,98892.72
2019-01-04T06:21:53.506Z,98885.02
2019-01-04T06:24:23.103Z,98884.68
2019-01-04T06:26:52.527Z,98896.27
2019-01-04T06:29:21.948Z,98887.68
2019-01-04T06:31:51.386Z,98900.58
2019-01-04T06:34:20.790Z,98898.00
2019-01-04T06:36:50.444Z,98903.61
2019-01-04T06:39:20.857Z,98904.48
2019-01-04T06:41:50.363Z,98903.55
2019-01-04T06:44:19.766Z,98905.28
2019-01-04T06:47:12.396Z,98905.77
2019-01-04T06:49:41.819Z,98909.63
2019-01-04T06:52:11.289Z,98911.31
2019-01-04T06:55:35.988Z,98913.51
2019-01-04T06:58:05.483Z,98914.34
2019-01-04T07:00:35.111Z,98919.12
2019-01-04T07:03:04.668Z,98919.53
2019-01-04T07:05:34.184Z,98919.50
2019-01-04T07:08:03.711Z,98911.36
2019-01-04T07:10:33.530Z,98922.55
2019-01-04T07:13:03.190Z,98927.69
2019-01-04T07:15:33.091Z,98930.33
2019-01-04T07:18:02.634Z,98925.13
2019-01-04T07:20:32.122Z,98935.47
2019-01-04T07:23:01.666Z,98938.48
2019-01-04T07:25:31.184Z,98939.75
2019-01-04T07:28:00.743Z,98947.11
2019-01-04T07:30:30.357Z,98943.66
2019-01-04T07:32:59.822Z,98949.23
2019-01-04T07:35:29.399Z,98946.24
2019-01-04T07:37:58.839Z,98948.38
2019-01-04T07:40:28.347Z,98950.49
2019-01-04T07:42:59.902Z,98945.38
2019-01-04T07:45:29.397Z,98961.28
2019-01-04T07:47:59.048Z,98956.10
2019-01-04T07:50:28.640Z,98957.84
2019-01-04T07:52:58.211Z,98950.50
2019-01-04T07:55:27.784Z,98956.11
2019-01-04T07:57:57.371Z,98949.24
2019-01-04T08:00:26.964Z,98956.55
2019-01-04T08:02:58.963Z,98956.98
2019-01-04T08:05:29.344Z,98955.68
2019-01-04T08:07:58.957Z,98964.27
2019-01-04T08:10:28.397Z,98956.10
2019-01-04T08:12:57.818Z,98957.80
2019-01-04T08:15:27.310Z,98962.11
2019-01-04T08:17:56.946Z,98958.25
2019-01-04T08:20:26.703Z,98959.55
2019-01-04T08:22:56.157Z,98971.16
2019-01-04T08:25:25.519Z,98966.41
2019-01-04T08:27:54.913Z,98965.55
2019-01-04T08:30:24.503Z,98968.55
2019-01-04T08:32:54.191Z,98962.53
2019-01-04T08:35:25.295Z,98965.09
2019-01-04T08:37:54.761Z,98971.95
2019-01-04T08:40:24.172Z,98968.94
2019-01-04T08:42:54.281Z,98965.06
2019-01-04T08:45:23.888Z,98973.67
2019-01-04T08:47:53.405Z,98973.63
2019-01-04T08:50:23.012Z,98974.92
2019-01-04T08:52:52.485Z,98976.22
2019-01-04T08:55:29.671Z,98981.42
2019-01-04T08:57:59.059Z,98984.38
2019-01-04T09:00:28.523Z,98983.52
2019-01-04T09:02:58.015Z,98980.50
2019-01-04T09:05:27.611Z,98970.63
2019-01-04T09:07:57.573Z,98987.34
2019-01-04T09:10:28.087Z,98984.32
2019-01-04T09:13:41.123Z,98987.75
2019-01-04T09:16:06.053Z,98988.22
2019-01-04T09:18:35.527Z,98993.77
2019-01-04T09:21:05.327Z,98999.84
2019-01-04T09:23:35.853Z,98991.53
2019-01-04T09:26:05.718Z,98987.30
2019-01-04T09:28:35.474Z,98987.72
2019-01-04T09:31:05.094Z,98985.93
2019-01-04T09:33:34.602Z,98985.15
2019-01-04T09:36:04.162Z,98981.26
2019-01-04T09:38:33.607Z,98981.64
2019-01-04T09:41:28.888Z,98976.98
2019-01-04T09:43:58.637Z,98978.29
2019-01-04T09:46:28.313Z,98972.71
2019-01-04T09:48:58.040Z,98966.14
2019-01-04T09:51:27.738Z,98960.62
2019-01-04T09:53:57.348Z,98963.19
2019-01-04T09:56:27.054Z,98958.75
2019-01-04T09:58:56.591Z,98955.34
2019-01-04T10:01:25.974Z,98960.94
2019-01-04T10:03:55.376Z,98954.91
2019-01-04T10:06:24.778Z,98939.84
2019-01-04T10:08:54.481Z,98936.75
2019-01-04T10:11:24.045Z,98928.55
2019-01-04T10:13:53.489Z,98940.13
2019-01-04T10:16:22.907Z,98933.69
2019-01-04T10:18:52.293Z,98935.02
2019-01-04T10:21:22.011Z,98928.14
2019-01-04T10:23:51.505Z,98923.41
2019-01-04T10:26:21.213Z,98927.65
2019-01-04T10:28:51.195Z,98916.94
2019-01-04T10:31:20.766Z,98915.19
2019-01-04T10:33:50.151Z,98915.50
2019-01-04T10:36:19.666Z,98906.03
2019-01-04T10:38:49.456Z,98910.87
2019-01-04T10:41:19.000Z,98908.25
2019-01-04T10:43:48.425Z,98901.36
2019-01-04T10:46:17.870Z,98896.55
2019-01-04T10:48:47.277Z,98897.13
2019-01-04T10:51:16.701Z,98894.52
2019-01-04T10:53:46.102Z,98891.36
2019-01-04T10:56:15.591Z,98897.32
2019-01-04T10:58:45.014Z,98896.62
2019-01-04T11:01:14.447Z,98888.50
2019-01-04T11:03:43.885Z,98873.77
2019-01-04T11:06:13.237Z,98875.58
2019-01-04T11:08:42.626Z,98873.42
2019-01-04T11:11:11.997Z,98878.47
2019-01-04T11:13:41.378Z,98882.80
2019-01-04T11:16:10.737Z,98877.19
2019-01-04T11:18:40.183Z,98877.24
2019-01-04T11:21:11.936Z,98880.76
2019-01-04T11:24:08.043Z,98879.87
2019-01-04T11:26:50.688Z,98866.50
2019-01-04T11:29:57.208Z,98854.83
2019-01-04T11:33:19.952Z,98853.05
2019-01-04T11:36:12.793Z,98850.91
2019-01-04T11:38:59.025Z,98851.34
2019-01-04T11:42:00.714Z,98844.31
2019-01-04T11:45:25.255Z,98844.79
2019-01-04T11:48:12.220Z,98833.56
2019-01-04T11:51:09.034Z,98819.91
2019-01-04T11:53:38.400Z,98819.17
2019-01-04T11:56:07.745Z,98822.73
2019-01-04T11:58:37.130Z,98827.77
2019-01-04T12:01:06.507Z,98830.67
2019-01-04T12:03:35.870Z,98827.27
2019-01-04T12:06:05.320Z,98828.37
2019-01-04T12:08:34.691Z,98822.90
2019-01-04T12:11:04.072Z,98813.59
2019-01-04T12:13:33.488Z,98786.63
2019-01-04T12:16:02.859Z,98800.29
2019-01-04T12:18:32.226Z,98802.53
2019-01-04T12:21:01.612Z,98813.18
2019-01-04T12:23:31.425Z,98806.80
2019-01-04T12:26:00.799Z,98809.84
2019-01-04T12:28:30.247Z,98805.99
2019-01-04T12:30:59.654Z,98797.91
2019-01-04T12:33:29.017Z,98801.66
2019-01-04T12:35:58.385Z,98793.14
2019-01-04T12:38:27.743Z,98789.59
2019-01-04T12:40:57.147Z,98787.48
2019-01-04T12:43:26.548Z,98788.39
2019-01-04T12:45:57.214Z,98783.70
2019-01-04T12:48:26.575Z,98788.89
2019-01-04T12:50:55.935Z,98784.16
2019-01-04T12:53:25.296Z,98783.80
2019-01-04T12:55:54.657Z,98775.59
2019-01-04T12:58:24.046Z,98772.19
2019-01-04T13:00:53.658Z,98761.43
2019-01-04T13:03:23.001Z,98765.16
2019-01-04T13:05:52.346Z,98762.67
2019-01-04T13:08:21.748Z,98774.78
2019-01-04T13:10:51.091Z,98776.09
2019-01-04T13:13:20.578Z,98770.52
2019-01-04T13:15:49.925Z,98773.55
2019-01-04T13:18:19.285Z,98755.52
2019-01-04T13:20:48.690Z,98761.08
2019-01-04T13:23:18.061Z,98752.44
2019-01-04T13:25:47.436Z,98737.44
2019-01-04T13:28:16.825Z,98724.10
2019-01-04T13:30:46.320Z,98714.66
2019-01-04T13:33:15.670Z,98705.00
2019-01-04T13:35:45.062Z,98705.60
2019-01-04T13:38:19.898Z,98700.32
2019-01-04T13:40:45.585Z,98708.92
2019-01-04T13:43:14.955Z,98708.89
2019-01-04T13:45:44.351Z,98714.91
2019-01-04T13:48:13.763Z,98715.78
2019-01-04T13:50:43.163Z,98712.34
2019-01-04T13:53:12.526Z,98714.88
2019-01-04T13:55:41.947Z,98717.50
2019-01-04T13:58:11.303Z,98718.61
2019-01-04T14:00:40.669Z,98712.64
2019-01-04T14:03:10.077Z,98713.53
2019-01-04T14:05:39.498Z,98716.50
2019-01-04T14:08:08.943Z,98708.34
2019-01-04T14:10:38.319Z,98704.09
2019-01-04T14:13:09.360Z,98699.67
2019-01-04T14:15:39.249Z,98695.91
2019-01-04T14:18:08.820Z,98686.93
2019-01-04T14:20:38.276Z,98693.39
2019-01-04T14:23:07.655Z,98678.38
2019-01-04T14:25:37.131Z,98671.09
2019-01-04T14:28:06.565Z,98671.92
2019-01-04T14:30:35.975Z,98670.14
2019-01-04T14:33:05.424Z,98672.88
2019-01-04T14:35:34.833Z,98668.17
2019-01-04T14:38:04.262Z,98667.73
2019-01-04T14:40:33.558Z,98658.33
2019-01-04T14:43:02.981Z,98665.56
2019-01-04T14:45:32.339Z,98664.30
2019-01-04T14:48:01.743Z,98653.56
2019-01-04T14:50:31.165Z,98647.03
2019-01-04T14:53:00.541Z,98636.16
2019-01-04T14:55:29.911Z,98627.59
2019-01-04T14:57:59.516Z,98633.69
2019-01-04T15:00:28.871Z,98624.27
2019-01-04T15:02:58.324Z,98623.67
2019-01-04T15:05:27.713Z,98616.50
2019-01-04T15:07:57.102Z,98613.59
2019-01-04T15:10:26.451Z,98614.02
2019-01-04T15:12:55.824Z,98608.88
2019-01-04T15:15:25.191Z,98610.64
2019-01-04T15:17:54.547Z,98608.49
2019-01-04T15:20:23.897Z,98606.75
2019-01-04T15:22:53.239Z,98599.11
2019-01-04T15:25:22.683Z,98601.13
2019-01-04T15:27:52.033Z,98600.71
2019-01-04T15:30:21.384Z,98598.30
2019-01-04T15:32:50.781Z,98596.11
2019-01-04T15:35:20.253Z,98592.70
2019-01-04T15:37:49.588Z,98596.04
2019-01-04T15:40:18.948Z,98600.45
2019-01-04T15:42:48.296Z,98593.07
2019-01-04T15:45:17.660Z,98592.27
2019-01-04T15:47:47.064Z,98602.04
2019-01-04T15:50:16.416Z,98607.44
2019-01-04T15:52:45.858Z,98621.30
2019-01-04T15:55:15.208Z,98616.91
2019-01-04T15:57:44.617Z,98614.87
2019-01-04T16:00:13.979Z,98622.24
2019-01-04T16:02:43.316Z,98615.78
2019-01-04T16:05:12.742Z,98613.20
2019-01-04T16:07:42.089Z,98617.08
2019-01-04T16:10:11.463Z,98620.44
2019-01-04T16:12:40.815Z,98609.64
2019-01-04T16:15:10.585Z,98609.70
2019-01-04T16:17:40.028Z,98615.92
2019-01-04T16:20:10.369Z,98622.34
2019-01-04T16:22:39.715Z,98623.20
2019-01-04T16:25:09.363Z,98631.75
2019-01-04T16:27:38.758Z,98632.20
2019-01-04T16:30:10.451Z,98638.63
2019-01-04T16:32:39.825Z,98639.97
2019-01-04T16:35:09.510Z,98629.73
2019-01-04T16:37:38.908Z,98627.00
2019-01-04T16:40:08.494Z,98614.09
2019-01-04T16:42:37.843Z,98614.67
